This is the latest recevied weather packets stored in our database for station/object PP5CFL-13. If no packets are shown the sender has not sent any weather packets the latest 10 day(s).
| Time | Temp. | Humidity | Pressure | Rain* | Wind** | Luminosity | Snow |
|---|---|---|---|---|---|---|---|
| 1778076524 | 23.33° C | 96% | 1023 hPa | - | - | - | - |
| 1778076224 | 23.33° C | 96% | 1023.1 hPa | - | - | - | - |
| 1778075924 | 23.33° C | 95% | 1023.1 hPa | - | - | - | - |
| 1778075624 | 23.33° C | 96% | 1023.2 hPa | - | - | - | - |
| 1778075324 | 23.33° C | 94% | 1023.4 hPa | - | - | - | - |
| 1778075024 | 23.89° C | 92% | 1023.4 hPa | - | - | - | - |
| 1778074724 | 24.44° C | 89% | 1023.4 hPa | - | - | - | - |
| 1778074424 | 24.44° C | 89% | 1023.2 hPa | - | - | - | - |
| 1778074124 | 24.44° C | 91% | 1023.3 hPa | - | - | - | - |
| 1778073824 | 24.44° C | 92% | 1023.4 hPa | - | - | - | - |
| 1778073524 | 23.89° C | 93% | 1023.4 hPa | - | - | - | - |
| 1778073224 | 23.33° C | 99% | 1023.4 hPa | - | - | - | - |
| 1778072924 | 22.78° C | 10% | - | - | - | - | - |
| 1778072624 | 22.78° C | 99% | 1023.5 hPa | - | - | - | - |
| 1778072324 | 22.78° C | 99% | 1023.5 hPa | - | - | - | - |
| 1778072024 | 22.78° C | 99% | 1023.5 hPa | - | - | - | - |
| 1778071724 | 22.78° C | 10% | - | - | - | - | - |
| 1778071424 | 22.78° C | 99% | 1023.4 hPa | - | - | - | - |
| 1778071124 | 22.78° C | 99% | 1023.4 hPa | - | - | - | - |
| 1778070824 | 22.78° C | 99% | 1023.3 hPa | - | - | - | - |
| 1778070524 | 22.78° C | 98% | 1023.2 hPa | - | - | - | - |
| 1778070224 | 22.78° C | 98% | 1023.4 hPa | - | - | - | - |
| 1778069924 | 22.78° C | 96% | 1023.3 hPa | - | - | - | - |
| 1778069624 | 22.78° C | 96% | 1023.3 hPa | - | - | - | - |
| 1778069324 | 22.78° C | 95% | 1023.3 hPa | - | - | - | - |
* Rain since midnight (hover to see other rain measurements)
** Current wind speed in m/s (hover to see current wind gust speed)